Huvudsida
METAR-TAF:

METAR-TAF

Flygplatser :

Mendoza Aerodrome

Mendoza, Argentina

latitud: 32-50S, longitud: 068-47W, höjd: 705 m

Aktuellt väderrapport

Denna rapport gjordes för 16 minuter sedan, klockan 18:00 UTC
Vind 7 kt från ost
Temperatur 33°C
Fuktighet 26%
Tryck 1008 hPa
Sikt 10 km eller mer
Inga moln under 1 500 m eller inga cumulonimbus

METAR: SAME 161800Z 09007KT CAVOK 33/11 Q1008

Tid: 15:16 (18:16 UTC)

Väderprognos

Denna rapport gjordes för 1 timme och 16 minuter sedan, klockan 17:00 UTC
Prognos gäller från 16 kl. 18 UTC till 17 kl. 18 UTC
Vind 5 kt från nordost
Sikt 10 km eller mer
Blir
från 17 kl. 00 UTC till 17 kl. 02 UTC
Vind 10 kt från syd
Sikt: 8000 m
Spridda moln på en höjd av 3000 ft, Högtornande cumulus.
Få moln på en höjd av 4000 ft, Cumulonimbus.
åska, regn

TAF: SAME 161700Z 1618/1718 05005KT 9999 FEWTCU TX36/1620Z TN16/1710Z BECMG 1700/1702 18010KT 8000 TSRA SCT030TCU FEW040CB

Aktuella väderrapporter och prognoser från 4000 flygplatser (METAR- och TAF-rapporter).

De tillgängliga stationerna syns som gula och röda prickar på kartan.

För musen över prickarna för att se namnen på stationerna.

Klicka sedan för att få väderrapporter och prognoser.

För att ändra kartan: Klicka på de gröna knapparna med ett svart kors på för att zooma in; den gröna knappen med ett streck på för att zooma ut; eller på de gröna pilarna för angränsande kartor.


METAR-TAF: